• Join FlightAware (Why Join?)
  • Login
  • US Flag 
12:13AM EST


 

Airport Tracker/Info


-or-


 

Live Flight TrackerFlight Track Log ✈ LBQ968 ✈ 07-Jun-2014 ✈ KIAG - KAGC

Flight Track Log - Related Links

Times and Time Zones

All times are in EDT time to prevent confusion due to time zone crossing. See the LBQ968 flight status page for this flight to view local times or setup timezone preferences in your user account.

Time Position Orientation Groundspeed Altitude Reporting Facility
EDT Latitude Longitude Course Direction KTS MPH feet Rate Location/Type
08:45PM 43.1167 -78.9333 90° East 112 129 900  Level Buffalo TRACON
08:46PM 43.1164 -78.8792 90° East 134 154 2,300 1,200 Climbing Cleveland Center
08:47PM 43.0883 -78.8344 131° Southeast 144 166 3,500 1,080 Climbing Cleveland Center
08:48PM 43.0631 -78.7936 130° Southeast 146 168 4,500 900 Climbing Cleveland Center
08:49PM 43.0278 -78.7644 149° Southeast 150 173 5,400 900 Climbing Cleveland Center
08:50PM 42.9919 -78.7581 173° South 137 158 6,400 900 Climbing Cleveland Center
08:51PM 42.9553 -78.7475 168° South 136 157 7,300 780 Climbing Cleveland Center
08:52PM 42.9181 -78.7500 183° South 134 154 8,000 360 Climbing Cleveland Center
08:53PM 42.8775 -78.7700 200° South 159 183 8,100  Climbing Cleveland Center
08:54PM 42.8269 -78.7903 196° South 174 200 8,100 -60 Level Cleveland Center
08:55PM 42.7764 -78.8131 198° South 182 209 8,000 -60 Descending Cleveland Center
08:56PM 42.7314 -78.8350 200° South 181 208 8,000  Level Cleveland Center
08:57PM 42.6814 -78.8589 199° South 181 208 8,000  Level Cleveland Center
08:58PM 42.6308 -78.8822 199° South 182 209 8,000  Level Cleveland Center
08:59PM 42.5844 -78.9039 199° South 182 209 8,000  Level Cleveland Center
09:00PM 42.5339 -78.9269 199° South 183 211 8,000  Level Cleveland Center
09:01PM 42.4833 -78.9519 200° South 184 212 8,000  Level Cleveland Center
09:02PM 42.4356 -78.9753 200° South 188 216 8,100 60 Climbing Cleveland Center
09:03PM 42.3856 -78.9994 200° South 185 213 8,200  Climbing Cleveland Center
09:04PM 42.3350 -79.0244 200° South 186 214 8,100 -60 Descending Cleveland Center
09:05PM 42.2881 -79.0472 200° South 186 214 8,100  Level Cleveland Center
09:06PM 42.2372 -79.0722 200° South 186 214 8,100  Level Cleveland Center
09:07PM 42.1906 -79.0936 199° South 186 214 8,100  Level Cleveland Center
09:08PM 42.1389 -79.1169 199° South 186 214 8,100  Level Cleveland Center
09:09PM 42.0878 -79.1406 199° South 187 215 8,100  Level Cleveland Center
09:10PM 42.0400 -79.1639 200° South 187 215 8,100  Level Cleveland Center
09:11PM 41.9883 -79.1858 198° South 187 215 8,100  Level Cleveland Center
09:12PM 41.9372 -79.2094 199° South 187 215 8,100  Level Cleveland Center
09:13PM 41.8889 -79.2319 199° South 187 215 8,100  Level Cleveland Center
09:14PM 41.8372 -79.2533 197° South 187 215 8,100 -60 Level Cleveland Center
09:15PM 41.7883 -79.2753 199° South 188 216 8,000 -60 Descending Cleveland Center
09:16PM 41.7383 -79.2956 197° South 188 216 8,000  Level Cleveland Center
09:17PM 41.6886 -79.3181 199° South 189 217 8,000  Level Cleveland Center
09:18PM 41.6406 -79.3394 198° South 186 214 8,100  Climbing Cleveland Center
09:19PM 41.5908 -79.3611 198° South 186 214 8,100  Level Cleveland Center
09:20PM 41.5308 -79.3850 197° South 187 215 8,100  Level Cleveland Center
09:21PM 41.4814 -79.4072 199° South 187 215 8,100  Level Cleveland Center
09:22PM 41.4325 -79.4281 198° South 188 216 8,100  Level Cleveland Center
09:23PM 41.3819 -79.4517 199° South 188 216 8,100  Level Cleveland Center
09:24PM 41.3314 -79.4731 198° South 188 216 8,100  Level Cleveland Center
09:25PM 41.2814 -79.4956 199° South 188 216 8,100  Level Cleveland Center
09:26PM 41.2314 -79.5192 200° South 189 217 8,100  Level Cleveland Center
09:27PM 41.1825 -79.5406 198° South 188 216 8,100  Level Cleveland Center
09:28PM 41.1325 -79.5633 199° South 188 216 8,100 -480 Level Cleveland Center
09:29PM 41.0794 -79.5894 200° South 199 229 7,200 -720 Descending Cleveland Center
09:31PM 41.0133 -79.6208 200° South 209 241 6,500 -660 Descending Cleveland Center
09:32PM 40.9578 -79.6469 200° South 209 241 5,800 -660 Descending Cleveland Center
09:33PM 40.9044 -79.6739 201° Southwest 209 241 5,200 -480 Descending Cleveland Center
09:34PM 40.8433 -79.7056 201° Southwest 202 232 4,900 -180 Descending Cleveland Center
09:35PM 40.7953 -79.7300 201° Southwest 190 219 4,900  Level Cleveland Center
09:36PM 40.7469 -79.7544 201° Southwest 187 215 4,900  Level Cleveland Center
09:37PM 40.6986 -79.7792 201° Southwest 187 215 5,000 -60 Climbing Cleveland Center
09:38PM 40.6503 -79.8022 200° South 187 215 4,800 -420 Descending Cleveland Center
09:39PM 40.5994 -79.8264 200° South 192 221 4,200 -480 Descending Cleveland Center
09:40PM 40.5489 -79.8506 200° South 193 222 3,900 -660 Descending Cleveland Center
09:41PM 40.4969 -79.8753 200° South 194 223 2,900 -480 Descending Cleveland Center
09:42PM 40.4486 -79.8967 199° South 192 221 3,000 -60 Climbing Cleveland Center
09:43PM 40.4069 -79.8997 183° South 166 191 2,800 -540 Descending Cleveland Center
09:44PM 40.3692 -79.9031 184° South 147 169 2,000 -840 Descending Cleveland Center
09:45PM 40.3539 -79.9242 226° Southwest 113 130 1,200 -840 Descending Cleveland Center
09:47PM 40.3500 -79.9167 North  Level FlightAware Approximate